Time,TemperatureF,DewpointF,PressureIn,WindDirection,WindDirectionDegrees,WindSpeedMPH,WindSpeedGustMPH,Humidity,HourlyPrecipIn,Conditions,Clouds,dailyrainin,SoftwareType,DateUTC
2013-11-11 00:14:00,15.1,11.4,30.10,NE,45,2.7,-999.0,85,-99.99,,,0.00,Acu-Link.com,2013-11-11 07:14:00,
2013-11-11 00:30:00,16.9,13.2,30.10,NNE,22,4.7,-999.0,85,-99.99,,,0.00,Acu-Link.com,2013-11-11 07:30:00,
2013-11-11 00:45:00,17.1,12.8,30.10,East,90,0.0,-999.0,83,-99.99,,,0.00,Acu-Link.com,2013-11-11 07:45:00,
2013-11-11 01:00:00,14.7,10.8,30.11,SW,225,0.0,-999.0,84,-99.99,,,0.00,Acu-Link.com,2013-11-11 08:00:00,
2013-11-11 01:15:00,13.8,11.2,30.12,NNE,22,0.0,-999.0,89,-99.99,,,0.00,Acu-Link.com,2013-11-11 08:15:00,
2013-11-11 01:30:00,13.6,13.1,30.10,West,270,0.0,-999.0,98,-99.99,,,0.00,Acu-Link.com,2013-11-11 08:30:00,
2013-11-11 01:46:00,13.8,13.1,30.11,ENE,67,0.0,-999.0,97,-99.99,,,0.00,Acu-Link.com,2013-11-11 08:46:00,
2013-11-11 02:01:00,13.8,12.9,30.12,NE,45,0.0,-999.0,96,-99.99,,,0.00,Acu-Link.com,2013-11-11 09:01:00,
2013-11-11 02:16:00,13.1,11.7,30.11,NNW,337,0.0,-999.0,94,-99.99,,,0.00,Acu-Link.com,2013-11-11 09:16:00,
2013-11-11 02:32:00,12.4,11.2,30.12,East,90,0.0,-999.0,95,-99.99,,,0.00,Acu-Link.com,2013-11-11 09:32:00,
2013-11-11 02:47:00,11.3,10.2,30.12,NE,45,0.0,-999.0,95,-99.99,,,0.00,Acu-Link.com,2013-11-11 09:47:00,
2013-11-11 03:02:00,11.1,10.2,30.12,North,0,0.0,-999.0,96,-99.99,,,0.00,Acu-Link.com,2013-11-11 10:02:00,
2013-11-11 03:17:00,10.9,10.4,30.14,NE,45,2.2,-999.0,98,-99.99,,,0.00,Acu-Link.com,2013-11-11 10:17:00,
2013-11-11 03:33:00,10.8,10.3,30.13,North,0,0.0,-999.0,98,-99.99,,,0.00,Acu-Link.com,2013-11-11 10:33:00,
2013-11-11 03:48:00,10.4,9.9,30.14,ENE,67,0.0,-999.0,98,-99.99,,,0.00,Acu-Link.com,2013-11-11 10:48:00,
2013-11-11 04:03:00,10.6,10.1,30.14,NE,45,2.7,-999.0,98,-99.99,,,0.00,Acu-Link.com,2013-11-11 11:03:00,
2013-11-11 04:19:00,11.3,10.8,30.14,NNE,22,2.2,-999.0,98,-99.99,,,0.00,Acu-Link.com,2013-11-11 11:19:00,
2013-11-11 04:34:00,11.1,10.6,30.14,North,0,1.1,-999.0,98,-99.99,,,0.00,Acu-Link.com,2013-11-11 11:34:00,
2013-11-11 04:49:00,10.4,9.9,30.15,NE,45,2.2,-999.0,98,-99.99,,,0.00,Acu-Link.com,2013-11-11 11:49:00,
2013-11-11 05:04:00,10.0,9.6,30.15,North,0,0.0,-999.0,98,-99.99,,,0.00,Acu-Link.com,2013-11-11 12:04:00,
2013-11-11 05:20:00,9.7,9.3,30.16,SSW,202,0.0,-999.0,98,-99.99,,,0.00,Acu-Link.com,2013-11-11 12:20:00,
2013-11-11 05:35:00,9.0,8.6,30.17,North,0,0.0,-999.0,98,-99.99,,,0.00,Acu-Link.com,2013-11-11 12:35:00,
2013-11-11 05:50:00,8.6,8.2,30.17,NNE,22,0.0,-999.0,98,-99.99,,,0.00,Acu-Link.com,2013-11-11 12:50:00,
2013-11-11 06:05:00,8.1,7.7,30.18,East,90,0.0,-999.0,98,-99.99,,,0.00,Acu-Link.com,2013-11-11 13:05:00,
2013-11-11 06:20:00,9.0,8.6,30.19,NNE,22,0.0,-999.0,98,-99.99,,,0.00,Acu-Link.com,2013-11-11 13:20:00,
2013-11-11 06:36:00,9.5,9.1,30.19,East,90,1.1,-999.0,98,-99.99,,,0.00,Acu-Link.com,2013-11-11 13:36:00,
2013-11-11 06:51:00,9.1,8.7,30.21,South,180,0.0,-999.0,98,-99.99,,,0.00,Acu-Link.com,2013-11-11 13:51:00,
2013-11-11 07:06:00,8.4,8.0,30.21,NE,45,0.0,-999.0,98,-99.99,,,0.00,Acu-Link.com,2013-11-11 14:06:00,
2013-11-11 07:21:00,10.6,10.1,30.21,ESE,112,0.0,-999.0,98,-99.99,,,0.00,Acu-Link.com,2013-11-11 14:21:00,
2013-11-11 07:36:00,16.3,13.4,30.23,ESE,112,2.7,-999.0,88,-99.99,,,0.00,Acu-Link.com,2013-11-11 14:36:00,
2013-11-11 07:52:00,20.5,16.7,30.22,South,180,2.2,-999.0,85,-99.99,,,0.00,Acu-Link.com,2013-11-11 14:52:00,
2013-11-11 08:07:00,22.8,17.6,30.23,South,180,2.2,-999.0,80,-99.99,,,0.00,Acu-Link.com,2013-11-11 15:07:00,
2013-11-11 08:22:00,24.3,17.8,30.22,SSE,157,2.7,-999.0,76,-99.99,,,0.00,Acu-Link.com,2013-11-11 15:22:00,
2013-11-11 08:38:00,26.6,20.1,30.22,SSE,157,2.2,-999.0,76,-99.99,,,0.00,Acu-Link.com,2013-11-11 15:38:00,
2013-11-11 08:53:00,28.6,21.1,30.22,SSW,202,2.2,-999.0,73,-99.99,,,0.00,Acu-Link.com,2013-11-11 15:53:00,
2013-11-11 09:08:00,29.8,21.6,30.22,South,180,3.2,-999.0,71,-99.99,,,0.00,Acu-Link.com,2013-11-11 16:08:00,
2013-11-11 09:23:00,32.9,22.4,30.21,South,180,2.7,-999.0,65,-99.99,,,0.00,Acu-Link.com,2013-11-11 16:23:00,
2013-11-11 09:39:00,35.1,23.4,30.20,SSE,157,2.7,-999.0,62,-99.99,,,0.00,Acu-Link.com,2013-11-11 16:39:00,
2013-11-11 09:54:00,36.7,23.7,30.22,SE,135,2.2,-999.0,59,-99.99,,,0.00,Acu-Link.com,2013-11-11 16:54:00,
2013-11-11 10:09:00,39.4,25.5,30.21,SSW,202,2.2,-999.0,57,-99.99,,,0.00,Acu-Link.com,2013-11-11 17:09:00,
2013-11-11 10:24:00,41.0,25.6,30.19,SW,225,2.7,-999.0,54,-99.99,,,0.00,Acu-Link.com,2013-11-11 17:24:00,
2013-11-11 10:40:00,42.4,25.6,30.20,South,180,2.2,-999.0,51,-99.99,,,0.00,Acu-Link.com,2013-11-11 17:40:00,
2013-11-11 10:55:00,45.0,26.5,30.19,South,180,4.2,-999.0,48,-99.99,,,0.00,Acu-Link.com,2013-11-11 17:55:00,
2013-11-11 11:10:00,45.5,26.5,30.17,SSE,157,2.7,-999.0,47,-99.99,,,0.00,Acu-Link.com,2013-11-11 18:10:00,
2013-11-11 11:25:00,47.7,26.9,30.16,South,180,2.7,-999.0,44,-99.99,,,0.00,Acu-Link.com,2013-11-11 18:25:00,
2013-11-11 11:41:00,48.2,26.2,30.16,WSW,247,2.2,-999.0,42,-99.99,,,0.00,Acu-Link.com,2013-11-11 18:41:00,
2013-11-11 11:56:00,50.0,26.6,30.15,WSW,247,3.2,-999.0,40,-99.99,,,0.00,Acu-Link.com,2013-11-11 18:56:00,
2013-11-11 12:12:00,51.8,27.0,30.14,SSE,157,4.7,-999.0,38,-99.99,,,0.00,Acu-Link.com,2013-11-11 19:12:00,
2013-11-11 12:27:00,52.7,26.5,30.13,WSW,247,3.7,-999.0,36,-99.99,,,0.00,Acu-Link.com,2013-11-11 19:27:00,
2013-11-11 12:42:00,53.2,26.3,30.12,SSE,157,4.2,-999.0,35,-99.99,,,0.00,Acu-Link.com,2013-11-11 19:42:00,
2013-11-11 12:57:00,54.9,27.1,30.10,South,180,4.2,-999.0,34,-99.99,,,0.00,Acu-Link.com,2013-11-11 19:57:00,
2013-11-11 13:13:00,56.3,28.3,30.09,WSW,247,3.2,-999.0,34,-99.99,,,0.00,Acu-Link.com,2013-11-11 20:13:00,
2013-11-11 13:28:00,56.8,28.0,30.09,WSW,247,5.3,-999.0,33,-99.99,,,0.00,Acu-Link.com,2013-11-11 20:28:00,
2013-11-11 13:43:00,57.4,28.5,30.09,SSW,202,5.8,-999.0,33,-99.99,,,0.00,Acu-Link.com,2013-11-11 20:43:00,
2013-11-11 13:58:00,57.7,28.8,30.09,West,270,3.7,-999.0,33,-99.99,,,0.00,Acu-Link.com,2013-11-11 20:58:00,
2013-11-11 14:13:00,57.9,27.5,30.07,SSW,202,5.3,-999.0,31,-99.99,,,0.00,Acu-Link.com,2013-11-11 21:13:00,
2013-11-11 14:28:00,57.2,26.1,30.09,SSE,157,4.2,-999.0,30,-99.99,,,0.00,Acu-Link.com,2013-11-11 21:28:00,
2013-11-11 14:43:00,57.4,27.0,30.08,West,270,4.2,-999.0,31,-99.99,,,0.00,Acu-Link.com,2013-11-11 21:43:00,
2013-11-11 14:58:00,57.0,25.9,30.08,SSW,202,5.3,-999.0,30,-99.99,,,0.00,Acu-Link.com,2013-11-11 21:58:00,
2013-11-11 15:13:00,57.0,26.7,30.06,SSW,202,3.2,-999.0,31,-99.99,,,0.00,Acu-Link.com,2013-11-11 22:13:00,
2013-11-11 15:29:00,55.9,24.9,30.04,SSW,202,3.7,-999.0,30,-99.99,,,0.00,Acu-Link.com,2013-11-11 22:29:00,
2013-11-11 15:44:00,55.6,25.5,30.06,South,180,2.2,-999.0,31,-99.99,,,0.00,Acu-Link.com,2013-11-11 22:44:00,
2013-11-11 15:59:00,54.9,25.6,30.08,SW,225,4.7,-999.0,32,-99.99,,,0.00,Acu-Link.com,2013-11-11 22:59:00,
2013-11-11 16:15:00,53.6,24.5,30.07,WSW,247,1.7,-999.0,32,-99.99,,,0.00,Acu-Link.com,2013-11-11 23:15:00,
2013-11-11 16:30:00,51.1,24.4,30.08,SSE,157,3.7,-999.0,35,-99.99,,,0.00,Acu-Link.com,2013-11-11 23:30:00,
2013-11-11 16:45:00,48.2,23.8,30.08,SW,225,0.0,-999.0,38,-99.99,,,0.00,Acu-Link.com,2013-11-11 23:45:00,
2013-11-11 17:00:00,43.9,23.4,30.10,SSW,202,1.7,-999.0,44,-99.99,,,0.00,Acu-Link.com,2013-11-12 00:00:00,
2013-11-11 17:15:00,41.9,23.2,30.08,West,270,2.2,-999.0,47,-99.99,,,0.00,Acu-Link.com,2013-11-12 00:15:00,
2013-11-11 17:31:00,41.0,22.3,30.11,SW,225,1.1,-999.0,47,-99.99,,,0.00,Acu-Link.com,2013-11-12 00:31:00,
2013-11-11 17:47:00,40.5,22.4,30.11,NNW,337,0.0,-999.0,48,-99.99,,,0.00,Acu-Link.com,2013-11-12 00:47:00,
2013-11-11 18:09:00,36.9,21.8,30.11,North,0,0.0,-999.0,54,-99.99,,,0.00,Acu-Link.com,2013-11-12 01:09:00,
2013-11-11 18:27:00,35.8,20.8,30.11,NNW,337,1.1,-999.0,54,-99.99,,,0.00,Acu-Link.com,2013-11-12 01:27:00,
2013-11-11 19:04:00,35.8,20.8,30.13,West,270,0.0,-999.0,54,-99.99,,,0.00,Acu-Link.com,2013-11-12 02:04:00,
2013-11-11 19:20:00,31.6,19.3,30.18,West,270,0.0,-999.0,60,-99.99,,,0.00,Acu-Link.com,2013-11-12 02:20:00,
2013-11-11 19:36:00,30.0,19.0,30.18,SSW,202,1.7,-999.0,63,-99.99,,,0.00,Acu-Link.com,2013-11-12 02:36:00,
2013-11-11 19:53:00,30.6,20.3,30.19,NW,315,2.2,-999.0,65,-99.99,,,0.00,Acu-Link.com,2013-11-12 02:53:00,
2013-11-11 20:11:00,27.5,18.7,30.18,NW,315,0.0,-999.0,69,-99.99,,,0.00,Acu-Link.com,2013-11-12 03:11:00,
2013-11-11 20:28:00,27.3,18.5,30.20,NE,45,2.7,-999.0,69,-99.99,,,0.00,Acu-Link.com,2013-11-12 03:28:00,
2013-11-11 20:51:00,26.1,17.7,30.21,NE,45,2.7,-999.0,70,-99.99,,,0.00,Acu-Link.com,2013-11-12 03:51:00,
2013-11-11 21:07:00,23.5,16.5,30.21,ESE,112,0.0,-999.0,74,-99.99,,,0.00,Acu-Link.com,2013-11-12 04:07:00,
2013-11-11 21:31:00,23.5,16.5,30.21,WNW,292,0.0,-999.0,74,-99.99,,,0.00,Acu-Link.com,2013-11-12 04:31:00,
2013-11-11 22:04:00,19.8,15.8,30.23,East,90,1.7,-999.0,84,-99.99,,,0.00,Acu-Link.com,2013-11-12 05:04:00,
2013-11-11 22:24:00,19.4,15.4,30.23,NNW,337,0.0,-999.0,84,-99.99,,,0.00,Acu-Link.com,2013-11-12 05:24:00,
2013-11-11 22:41:00,19.8,16.0,30.24,NE,45,1.1,-999.0,85,-99.99,,,0.00,Acu-Link.com,2013-11-12 05:41:00,
2013-11-11 22:56:00,20.7,16.4,30.25,NE,45,0.0,-999.0,83,-99.99,,,0.00,Acu-Link.com,2013-11-12 05:56:00,
2013-11-11 23:11:00,20.3,15.7,30.26,NNE,22,0.0,-999.0,82,-99.99,,,0.00,Acu-Link.com,2013-11-12 06:11:00,
2013-11-11 23:26:00,19.8,15.8,30.26,SE,135,0.0,-999.0,84,-99.99,,,0.00,Acu-Link.com,2013-11-12 06:26:00,
2013-11-11 23:46:00,18.5,14.8,30.27,NNE,22,0.0,-999.0,85,-99.99,,,0.00,Acu-Link.com,2013-11-12 06:46:00,